Aviation Digital Data Service (ADDS)

Output produced by METARs form (1108 UTC 13 December 2017)
found at http://www.aviationweather.gov/adds/metars/
 
SLCO 131100Z VRB02KT 8000 FEW080 BKN200 25/24 Q1009
TAF SLCO 131000Z 1312/1412 00000KT 9999 SCT080 TX35/1320Z TN22/1410Z 
     BECMG 1314/1318 25008KT FEW020 
     BECMG 1319/1322 19006KT FEW027 
     BECMG 1323/1403 00000KT NSC
       
SLCB 131100Z VRB02KT 9999 SCT030 SCT200 17/09 Q1025
TAF SLCB 131000Z 1312/1412 00000KT 9999 FEW030 TX29/1319Z TN13/1410Z 
     BECMG 1314/1316 27008KT 
     BECMG 1320/1322 16017KT 
     BECMG 1324/1402 14008KT
       
SLLP 131100Z 09005KT 4000E VCFG FEW003 SCT013 BKN200 07/04 Q1037
TAF SLLP 131000Z 1312/1412 13010KT 9999 FEW017 TX18/1320Z TN05/1410Z 
     TEMPO 1317/1320 33006KT SCT023 FEW025CB 
     BECMG 1323/1401 07005KT
       
SLOR 131100Z 00000KT 9999 NSC 08/01 Q1034
SLPO 131100Z 00000KT 9999 NSC 05/03 Q1036
SLPS 131100Z 00000KT 9999 NSC 28/24 Q1009
TAF SLPS 131000Z 1312/1412 00000KT 9999 NSC TX35/1320Z TN23/1410Z 
     TEMPO 1316/1318 06005KT SCT023 
     BECMG 1323/1401 00000KT NSC
       
SLRI 131100Z 00000KT 9999 NSC 24/24 Q1010
SLSA 131100Z 00000KT 9999 NSC 25/25 Q1008
SLET 131100Z 30007KT 9999 FEW080 SCT200 25/21 Q1009
TAF SLET 131000Z 1312/1412 32005KT 9999 NSC TX35/1320Z TN22/1411Z 
     BECMG 1315/1317 34015KT SCT020 
     BECMG 1320/1322 SCT023 FEW030TCU 
     BECMG 1406/1408 33004KT NSC
       
SLVR 131100Z 32005KT 9999 FEW070 SCT200 26/21 Q1010
TAF SLVR 131000Z 1312/1412 34005KT 9999 NSC TX35/1320Z TN22/1411Z 
     BECMG 1315/1317 34015KT SCT020 
     BECMG 1320/1322 SCT023 FEW030TCU 
     BECMG 1406/1408 33004KT NSC
       
SLTJ 131100Z 00000KT 9999 NSC 18/12 Q1017
TAF SLTJ 131000Z 1312/1412 00000KT 9999 NSC TX32/1319Z TN13/1410Z 
     BECMG 1314/1316 14015KT FEW036 
     BECMG 1322/1324 14007KT
       
SLTR 131100Z 00000KT 9999 NSC 26/25 Q1009
TAF SLTR 131000Z 1312/1412 00000KT 9999 NSC TX35/1320Z TN23/1410Z 
     BECMG 1315/1319 29007KT FEW017 
     BECMG 1320/1322 14007KT FEW020 
     BECMG 1323/1404 00000KT NSC
       
SLVM 131100Z 00000KT 9999 NSC 24/20 Q1007
SLYA 131000Z 00000KT 9999 NSC 21/20 Q1008